createdAt,value
2023-05-25T00:00:29.111Z,11.70
2023-05-25T00:02:56.378Z,11.71
2023-05-25T00:05:27.964Z,11.71
2023-05-25T00:07:55.546Z,11.66
2023-05-25T00:10:23.972Z,11.67
2023-05-25T00:12:51.183Z,11.68
2023-05-25T00:15:18.048Z,11.71
2023-05-25T00:17:44.771Z,11.78
2023-05-25T00:20:13.952Z,11.77
2023-05-25T00:22:45.089Z,11.75
2023-05-25T00:25:12.570Z,11.74
2023-05-25T00:27:39.435Z,11.77
2023-05-25T00:30:07.389Z,11.81
2023-05-25T00:32:34.213Z,11.86
2023-05-25T00:35:01.668Z,11.83
2023-05-25T00:37:28.395Z,11.83
2023-05-25T00:39:55.930Z,11.85
2023-05-25T00:42:24.169Z,11.87
2023-05-25T00:44:51.539Z,11.88
2023-05-25T00:47:18.401Z,11.88
2023-05-25T00:49:46.246Z,11.85
2023-05-25T00:52:13.409Z,11.84
2023-05-25T00:55:09.222Z,11.83
2023-05-25T00:57:37.962Z,11.77
2023-05-25T01:00:11.058Z,11.73
2023-05-25T01:02:42.617Z,11.68
2023-05-25T01:05:14.920Z,11.52
2023-05-25T01:07:44.260Z,11.40
2023-05-25T01:10:15.785Z,11.56
2023-05-25T01:12:44.660Z,11.48
2023-05-25T01:15:12.052Z,11.45
2023-05-25T01:17:39.281Z,11.43
2023-05-25T01:20:11.940Z,11.47
2023-05-25T01:23:00.246Z,11.46
2023-05-25T01:25:43.191Z,11.36
2023-05-25T01:28:18.491Z,11.46
2023-05-25T01:30:48.741Z,11.44
2023-05-25T01:33:18.292Z,11.48
2023-05-25T01:35:47.239Z,11.43
2023-05-25T01:38:20.861Z,11.43
2023-05-25T01:40:47.708Z,11.41
2023-05-25T01:43:19.061Z,11.33
2023-05-25T01:45:47.003Z,11.48
2023-05-25T01:48:24.089Z,11.53
2023-05-25T01:50:58.088Z,11.41
2023-05-25T01:53:50.474Z,11.45
2023-05-25T01:56:19.474Z,11.50
2023-05-25T01:58:48.687Z,11.49
2023-05-25T02:01:18.290Z,11.50
2023-05-25T02:03:49.085Z,11.61
2023-05-25T02:06:16.367Z,11.62
2023-05-25T02:08:44.247Z,11.58
2023-05-25T02:11:14.551Z,11.58
2023-05-25T02:13:41.815Z,11.68
2023-05-25T02:16:08.866Z,11.59
2023-05-25T02:18:36.026Z,11.70
2023-05-25T02:21:03.535Z,11.58
2023-05-25T02:23:30.477Z,11.65
2023-05-25T02:25:57.197Z,11.65
2023-05-25T02:28:25.094Z,11.58
2023-05-25T02:30:51.930Z,11.55
2023-05-25T02:33:19.034Z,11.65
2023-05-25T02:35:46.550Z,11.67
2023-05-25T02:38:13.955Z,11.47
2023-05-25T02:40:40.801Z,11.52
2023-05-25T02:43:12.247Z,11.52
2023-05-25T02:45:40.310Z,11.45
2023-05-25T02:48:07.405Z,11.56
2023-05-25T02:50:35.611Z,11.55
2023-05-25T02:53:11.808Z,11.57
2023-05-25T02:55:40.552Z,11.65
2023-05-25T02:58:10.201Z,11.66
2023-05-25T03:00:54.768Z,11.61
2023-05-25T03:03:21.817Z,11.64
2023-05-25T03:05:49.204Z,11.73
2023-05-25T03:08:19.633Z,11.67
2023-05-25T03:10:47.624Z,11.68
2023-05-25T03:13:18.989Z,11.61
2023-05-25T03:15:46.219Z,11.54
2023-05-25T03:18:13.075Z,11.51
2023-05-25T03:20:41.626Z,11.62
2023-05-25T03:23:08.653Z,11.65
2023-05-25T03:25:35.781Z,11.69
2023-05-25T03:28:03.933Z,11.65
2023-05-25T03:30:31.418Z,11.59
2023-05-25T03:32:58.436Z,11.58
2023-05-25T03:35:30.704Z,11.49
2023-05-25T03:37:57.612Z,11.51
2023-05-25T03:40:24.285Z,11.50
2023-05-25T03:42:51.414Z,11.47
2023-05-25T03:45:18.241Z,11.41
2023-05-25T03:47:45.627Z,11.52
2023-05-25T03:50:12.753Z,11.43
2023-05-25T03:52:39.564Z,11.46
2023-05-25T03:55:09.537Z,11.46
2023-05-25T03:57:36.239Z,11.50
2023-05-25T04:00:03.184Z,11.46
2023-05-25T04:02:42.661Z,11.51
2023-05-25T04:05:09.867Z,11.52
2023-05-25T04:07:37.138Z,11.61
2023-05-25T04:10:04.653Z,11.57
2023-05-25T04:12:32.516Z,11.54
2023-05-25T04:14:59.670Z,11.59
2023-05-25T04:17:30.314Z,11.57
2023-05-25T04:19:57.182Z,11.57
2023-05-25T04:22:23.943Z,11.62
2023-05-25T04:24:50.675Z,11.56
2023-05-25T04:27:17.673Z,11.71
2023-05-25T04:29:50.285Z,11.59
2023-05-25T04:32:37.569Z,11.65
2023-05-25T04:35:33.520Z,11.58
2023-05-25T04:38:02.820Z,11.63
2023-05-25T04:40:30.149Z,11.71
2023-05-25T04:42:57.133Z,11.64
2023-05-25T04:45:24.982Z,11.72
2023-05-25T04:47:51.851Z,11.74
2023-05-25T04:50:18.756Z,11.84
2023-05-25T04:52:45.567Z,11.86
2023-05-25T04:55:25.200Z,11.79
2023-05-25T04:57:53.340Z,11.74
2023-05-25T05:00:25.152Z,11.73
2023-05-25T05:02:56.758Z,11.86
2023-05-25T05:05:30.964Z,11.78
2023-05-25T05:08:00.191Z,11.86
2023-05-25T05:10:27.135Z,11.84
2023-05-25T05:12:57.004Z,11.86
2023-05-25T05:15:24.027Z,11.82
2023-05-25T05:17:50.866Z,11.76
2023-05-25T05:20:17.810Z,11.88
2023-05-25T05:22:46.057Z,11.89
2023-05-25T05:25:12.881Z,11.85
2023-05-25T05:27:39.686Z,11.88
2023-05-25T05:30:13.624Z,11.89
2023-05-25T05:32:40.621Z,11.90
2023-05-25T05:35:10.701Z,11.83
2023-05-25T05:37:41.140Z,11.88
2023-05-25T05:40:11.925Z,11.91
2023-05-25T05:42:41.286Z,11.89
2023-05-25T05:45:09.412Z,11.91
2023-05-25T05:47:36.271Z,11.97
2023-05-25T05:50:03.507Z,11.93
2023-05-25T05:52:30.670Z,11.97
2023-05-25T05:54:57.415Z,12.04
2023-05-25T05:57:24.241Z,12.04
2023-05-25T05:59:51.217Z,12.02
2023-05-25T06:02:19.541Z,12.09
2023-05-25T06:04:46.486Z,12.07
2023-05-25T06:07:13.231Z,12.06
2023-05-25T06:09:40.968Z,12.06
2023-05-25T06:12:08.913Z,12.11
2023-05-25T06:14:35.742Z,12.09
2023-05-25T06:17:07.382Z,12.18
2023-05-25T06:19:34.204Z,12.20
2023-05-25T06:22:01.072Z,12.28
2023-05-25T06:24:27.761Z,12.29
2023-05-25T06:26:54.453Z,12.26
2023-05-25T06:29:21.224Z,12.27
2023-05-25T06:31:47.993Z,12.21
2023-05-25T06:34:15.058Z,12.22
2023-05-25T06:36:42.452Z,12.19
2023-05-25T06:39:10.326Z,12.30
2023-05-25T06:41:38.371Z,12.25
2023-05-25T06:44:05.193Z,12.25
2023-05-25T06:46:33.570Z,12.25
2023-05-25T06:49:01.522Z,12.29
2023-05-25T06:51:31.273Z,12.31
2023-05-25T06:53:58.025Z,12.27
2023-05-25T06:56:24.814Z,12.29
2023-05-25T06:58:51.502Z,12.32
2023-05-25T07:01:18.247Z,12.43
2023-05-25T07:03:44.992Z,12.37
2023-05-25T07:06:12.320Z,12.50
2023-05-25T07:08:41.214Z,12.50
2023-05-25T07:11:11.977Z,12.57
2023-05-25T07:13:38.752Z,12.64
2023-05-25T07:16:05.853Z,12.64
2023-05-25T07:18:32.755Z,12.78
2023-05-25T07:20:59.459Z,12.85
2023-05-25T07:23:26.419Z,12.89
2023-05-25T07:25:53.191Z,12.80
2023-05-25T07:28:19.953Z,12.97
2023-05-25T07:30:46.658Z,13.00
2023-05-25T07:33:21.741Z,12.95
2023-05-25T07:35:49.198Z,12.96
2023-05-25T07:38:25.190Z,12.88
2023-05-25T07:40:52.666Z,12.96
2023-05-25T07:43:20.602Z,12.86
2023-05-25T07:45:47.510Z,12.87
2023-05-25T07:48:14.267Z,12.88
2023-05-25T07:50:41.474Z,12.85
2023-05-25T07:53:15.903Z,12.81
2023-05-25T07:55:42.705Z,12.82
2023-05-25T07:58:09.657Z,12.83
2023-05-25T08:00:36.387Z,12.93
2023-05-25T08:03:03.432Z,13.00
2023-05-25T08:05:30.575Z,12.88
2023-05-25T08:07:57.554Z,12.95
2023-05-25T08:10:24.353Z,13.08
2023-05-25T08:12:52.515Z,13.14
2023-05-25T08:15:19.473Z,13.15
2023-05-25T08:17:46.381Z,13.26
2023-05-25T08:20:14.452Z,13.21
2023-05-25T08:22:41.414Z,13.26
2023-05-25T08:25:11.441Z,13.25
2023-05-25T08:27:38.214Z,13.41
2023-05-25T08:30:08.104Z,13.46
2023-05-25T08:32:34.828Z,13.48
2023-05-25T08:35:03.959Z,13.48
2023-05-25T08:37:35.658Z,13.55
2023-05-25T08:40:03.090Z,13.78
2023-05-25T08:42:30.141Z,13.81
2023-05-25T08:44:57.350Z,13.96
2023-05-25T08:47:24.934Z,13.89
2023-05-25T08:49:53.092Z,13.94
2023-05-25T08:52:23.007Z,14.18
2023-05-25T08:55:03.781Z,14.19
2023-05-25T08:57:49.129Z,14.30
2023-05-25T09:00:19.361Z,14.40
2023-05-25T09:02:56.266Z,14.45
2023-05-25T09:05:24.063Z,14.42
2023-05-25T09:07:54.375Z,14.33
2023-05-25T09:10:22.424Z,14.32
2023-05-25T09:12:51.707Z,14.29
2023-05-25T09:15:18.955Z,14.33
2023-05-25T09:17:45.694Z,14.39
2023-05-25T09:20:22.456Z,14.33
2023-05-25T09:22:49.237Z,14.42
2023-05-25T09:25:26.048Z,14.46
2023-05-25T09:27:53.491Z,14.51
2023-05-25T09:30:20.207Z,14.49
2023-05-25T09:32:46.964Z,14.45
2023-05-25T09:35:15.471Z,14.46
2023-05-25T09:37:44.105Z,14.54
2023-05-25T09:40:16.761Z,14.55
2023-05-25T09:42:44.336Z,14.59
2023-05-25T09:45:18.635Z,14.67
2023-05-25T09:47:45.470Z,14.62
2023-05-25T09:50:12.298Z,14.66
2023-05-25T09:52:39.104Z,14.71
2023-05-25T09:55:15.888Z,14.69
2023-05-25T09:57:44.148Z,14.69
2023-05-25T10:00:12.188Z,14.76
2023-05-25T10:02:39.142Z,14.79
2023-05-25T10:05:07.519Z,14.79
2023-05-25T10:07:35.115Z,14.83
2023-05-25T10:10:06.771Z,15.01
2023-05-25T10:12:34.165Z,15.13
2023-05-25T10:15:04.256Z,15.28
2023-05-25T10:17:35.669Z,15.30
2023-05-25T10:20:06.982Z,15.46
2023-05-25T10:22:54.268Z,15.62
2023-05-25T10:25:48.829Z,15.79
2023-05-25T10:28:24.627Z,15.93
2023-05-25T10:30:53.541Z,16.01
2023-05-25T10:33:21.339Z,16.11
2023-05-25T10:36:03.135Z,16.26
2023-05-25T10:38:39.340Z,16.14
2023-05-25T10:41:11.110Z,16.24
2023-05-25T10:43:41.419Z,16.28
2023-05-25T10:46:09.119Z,16.45
2023-05-25T10:48:37.534Z,16.55
2023-05-25T10:51:09.327Z,16.72
2023-05-25T10:53:37.776Z,16.83
2023-05-25T10:56:06.478Z,16.91
2023-05-25T10:58:34.216Z,16.91
2023-05-25T11:01:02.496Z,16.93
2023-05-25T11:03:44.402Z,17.04
2023-05-25T11:06:12.370Z,16.88
2023-05-25T11:08:55.019Z,16.98
2023-05-25T11:11:40.652Z,16.92
2023-05-25T11:14:20.497Z,16.95
2023-05-25T11:17:14.046Z,17.05
2023-05-25T11:19:52.501Z,17.14
2023-05-25T11:22:23.037Z,17.16
2023-05-25T11:24:51.826Z,17.13
2023-05-25T11:27:29.689Z,17.23
2023-05-25T11:29:58.490Z,17.33
2023-05-25T11:32:26.751Z,17.39
2023-05-25T11:34:55.214Z,17.33
2023-05-25T11:37:28.962Z,17.36
2023-05-25T11:39:56.499Z,17.44
2023-05-25T11:42:24.814Z,17.66
2023-05-25T11:44:52.079Z,17.71
2023-05-25T11:47:23.307Z,17.84
2023-05-25T11:49:50.633Z,18.07
2023-05-25T11:52:19.023Z,18.19
2023-05-25T11:54:46.598Z,18.34
2023-05-25T11:57:22.643Z,18.45
2023-05-25T11:59:54.141Z,18.41
2023-05-25T12:02:22.250Z,18.33
2023-05-25T12:05:01.891Z,18.29
2023-05-25T12:07:30.045Z,18.31
2023-05-25T12:10:07.102Z,18.25
2023-05-25T12:12:44.404Z,18.12
2023-05-25T12:15:21.134Z,18.07
2023-05-25T12:17:48.386Z,18.17
2023-05-25T12:20:18.995Z,18.18
2023-05-25T12:22:47.378Z,18.14
2023-05-25T12:25:18.704Z,18.18
2023-05-25T12:27:45.625Z,18.29
2023-05-25T12:30:12.488Z,18.16
2023-05-25T12:32:53.853Z,18.16
2023-05-25T12:35:22.469Z,18.23
2023-05-25T12:37:49.341Z,18.24
2023-05-25T12:40:21.026Z,18.21
2023-05-25T12:42:56.868Z,18.22
2023-05-25T12:45:24.122Z,18.26
2023-05-25T12:47:51.170Z,18.24
2023-05-25T12:50:19.438Z,18.33
2023-05-25T12:52:49.047Z,18.44
2023-05-25T12:55:28.180Z,18.56
2023-05-25T12:58:03.441Z,18.56
2023-05-25T13:00:40.068Z,18.52
2023-05-25T13:03:08.037Z,18.56
2023-05-25T13:05:37.089Z,18.53
2023-05-25T13:08:05.618Z,18.57
2023-05-25T13:10:33.372Z,18.58
2023-05-25T13:13:00.951Z,18.69
2023-05-25T13:15:28.321Z,18.84
2023-05-25T13:17:56.523Z,18.99
2023-05-25T13:20:28.028Z,19.00
2023-05-25T13:22:58.332Z,18.95
2023-05-25T13:25:27.574Z,18.90
2023-05-25T13:27:55.170Z,19.03
2023-05-25T13:30:22.193Z,19.12
2023-05-25T13:32:51.426Z,19.18
2023-05-25T13:35:23.289Z,19.22
2023-05-25T13:37:51.272Z,19.30
2023-05-25T13:40:18.396Z,19.45
2023-05-25T13:42:45.209Z,19.45
2023-05-25T13:45:12.090Z,19.50
2023-05-25T13:47:38.942Z,19.51
2023-05-25T13:50:08.345Z,19.46
2023-05-25T13:52:37.152Z,19.51
2023-05-25T13:55:04.676Z,19.58
2023-05-25T13:57:31.480Z,19.64
2023-05-25T13:59:58.108Z,19.76
2023-05-25T14:02:24.986Z,19.75
2023-05-25T14:04:51.968Z,19.95
2023-05-25T14:07:18.682Z,20.00
2023-05-25T14:09:45.664Z,19.95
2023-05-25T14:12:14.243Z,19.91
2023-05-25T14:14:41.124Z,19.91
2023-05-25T14:17:10.625Z,19.91
2023-05-25T14:19:37.826Z,19.93
2023-05-25T14:22:13.360Z,20.02
2023-05-25T14:24:41.508Z,20.14
2023-05-25T14:27:08.688Z,20.10
2023-05-25T14:29:35.747Z,20.23
2023-05-25T14:32:11.396Z,20.16
2023-05-25T14:34:38.115Z,20.21
2023-05-25T14:37:04.964Z,20.14
2023-05-25T14:39:31.833Z,20.19
2023-05-25T14:41:58.681Z,20.27
2023-05-25T14:44:25.442Z,20.20
2023-05-25T14:46:52.234Z,20.31
2023-05-25T14:49:19.734Z,20.32
2023-05-25T14:51:46.462Z,20.22
2023-05-25T14:54:15.953Z,20.35
2023-05-25T14:56:51.457Z,20.34
2023-05-25T14:59:18.215Z,20.37
2023-05-25T15:01:50.545Z,20.31
2023-05-25T15:04:17.354Z,20.26
2023-05-25T15:06:44.123Z,20.30
2023-05-25T15:09:11.004Z,20.37
2023-05-25T15:11:37.647Z,20.38
2023-05-25T15:14:04.861Z,20.38
2023-05-25T15:16:31.773Z,20.43
2023-05-25T15:18:58.661Z,20.44
2023-05-25T15:21:26.725Z,20.53
2023-05-25T15:23:53.491Z,20.37
2023-05-25T15:26:20.166Z,20.41
2023-05-25T15:28:47.078Z,20.42
2023-05-25T15:31:13.754Z,20.50
2023-05-25T15:33:53.888Z,20.53
2023-05-25T15:36:23.570Z,20.54
2023-05-25T15:38:50.359Z,20.50
2023-05-25T15:41:17.660Z,20.53
2023-05-25T15:43:54.536Z,20.44
2023-05-25T15:46:21.661Z,20.51
2023-05-25T15:48:48.389Z,20.49
2023-05-25T15:51:15.282Z,20.49
2023-05-25T15:53:41.996Z,20.48
2023-05-25T15:56:08.710Z,20.40
2023-05-25T15:58:35.677Z,20.48
2023-05-25T16:01:02.833Z,20.45
2023-05-25T16:03:29.966Z,20.50
2023-05-25T16:05:57.263Z,20.52
2023-05-25T16:08:23.977Z,20.49
2023-05-25T16:10:53.543Z,20.44
2023-05-25T16:13:20.428Z,20.44
2023-05-25T16:15:47.279Z,20.49
2023-05-25T16:18:20.473Z,20.44
2023-05-25T16:20:49.143Z,20.49
2023-05-25T16:23:18.611Z,20.37
2023-05-25T16:25:45.625Z,20.37
2023-05-25T16:28:12.509Z,20.41
2023-05-25T16:30:39.348Z,20.48
2023-05-25T16:33:06.550Z,20.50
2023-05-25T16:35:33.476Z,20.44
2023-05-25T16:38:00.190Z,20.38
2023-05-25T16:40:39.565Z,20.49
2023-05-25T16:43:06.435Z,20.57
2023-05-25T16:45:33.085Z,20.52
2023-05-25T16:48:00.136Z,20.54
2023-05-25T16:50:27.092Z,20.51
2023-05-25T16:52:53.854Z,20.44
2023-05-25T16:55:21.345Z,20.31
2023-05-25T16:57:48.109Z,20.33
2023-05-25T17:00:17.645Z,20.37
2023-05-25T17:02:45.138Z,20.43
2023-05-25T17:05:12.127Z,20.26
2023-05-25T17:07:40.239Z,20.24
2023-05-25T17:10:08.151Z,20.17
2023-05-25T17:12:34.854Z,20.19
2023-05-25T17:15:01.635Z,20.09
2023-05-25T17:17:28.782Z,20.09
2023-05-25T17:19:55.652Z,20.13
2023-05-25T17:22:22.488Z,20.13
2023-05-25T17:24:49.188Z,20.11
2023-05-25T17:27:19.118Z,20.00
2023-05-25T17:29:46.187Z,20.05
2023-05-25T17:32:12.954Z,19.95
2023-05-25T17:34:39.831Z,20.10
2023-05-25T17:37:06.721Z,19.96
2023-05-25T17:39:33.548Z,19.87
2023-05-25T17:42:01.463Z,19.93
2023-05-25T17:44:28.197Z,19.88
2023-05-25T17:46:55.249Z,19.77
2023-05-25T17:49:22.001Z,19.70
2023-05-25T17:51:48.791Z,19.67
2023-05-25T17:54:21.555Z,19.58
2023-05-25T17:56:48.342Z,19.60
2023-05-25T17:59:15.059Z,19.56
2023-05-25T18:01:42.063Z,19.57
2023-05-25T18:04:09.104Z,19.46
2023-05-25T18:06:37.747Z,19.33
2023-05-25T18:09:08.135Z,19.41
2023-05-25T18:11:36.609Z,19.40
2023-05-25T18:14:05.183Z,19.26
2023-05-25T18:16:32.594Z,19.12
2023-05-25T18:18:59.361Z,19.09
2023-05-25T18:21:26.525Z,18.92
2023-05-25T18:23:53.184Z,18.83
2023-05-25T18:26:19.888Z,18.72
2023-05-25T18:28:46.572Z,18.55
2023-05-25T18:31:13.418Z,18.41
2023-05-25T18:33:41.196Z,18.34
2023-05-25T18:36:08.202Z,18.27
2023-05-25T18:38:38.069Z,18.18
2023-05-25T18:41:10.482Z,18.13
2023-05-25T18:43:37.552Z,18.00
2023-05-25T18:46:07.532Z,17.78
2023-05-25T18:48:34.941Z,17.72
2023-05-25T18:51:03.054Z,17.67
2023-05-25T18:53:29.917Z,17.55
2023-05-25T18:55:56.682Z,17.41
2023-05-25T18:58:23.471Z,17.33
2023-05-25T19:00:50.189Z,17.35
2023-05-25T19:03:17.070Z,17.29
2023-05-25T19:05:43.925Z,17.17
2023-05-25T19:08:10.822Z,17.04
2023-05-25T19:10:37.532Z,17.00
2023-05-25T19:13:04.923Z,16.87
2023-05-25T19:15:31.561Z,16.76
2023-05-25T19:17:58.369Z,16.66
2023-05-25T19:20:25.127Z,16.55
2023-05-25T19:22:51.825Z,16.49
2023-05-25T19:25:18.598Z,16.37
2023-05-25T19:27:45.464Z,16.48
2023-05-25T19:30:12.403Z,16.35
2023-05-25T19:32:42.051Z,16.18
2023-05-25T19:35:11.827Z,16.02
2023-05-25T19:37:38.636Z,16.04
2023-05-25T19:40:08.883Z,16.01
2023-05-25T19:42:35.598Z,15.92
2023-05-25T19:45:05.793Z,15.94
2023-05-25T19:47:32.659Z,15.85
2023-05-25T19:49:59.543Z,15.75
2023-05-25T19:52:26.553Z,15.73
2023-05-25T19:54:53.314Z,15.63
2023-05-25T19:57:20.985Z,15.55
2023-05-25T19:59:47.735Z,15.47
2023-05-25T20:02:14.558Z,15.32
2023-05-25T20:04:41.526Z,15.38
2023-05-25T20:07:08.415Z,15.30
2023-05-25T20:09:35.747Z,15.26
2023-05-25T20:12:03.230Z,15.16
2023-05-25T20:14:33.772Z,15.10
2023-05-25T20:17:00.638Z,15.01
2023-05-25T20:19:27.503Z,14.92
2023-05-25T20:21:54.746Z,14.83
2023-05-25T20:24:22.184Z,14.78
2023-05-25T20:26:50.967Z,14.73
2023-05-25T20:29:17.645Z,14.75
2023-05-25T20:31:44.585Z,14.77
2023-05-25T20:34:11.320Z,14.66
2023-05-25T20:36:38.475Z,14.61
2023-05-25T20:39:05.805Z,14.56
2023-05-25T20:41:32.769Z,14.40
2023-05-25T20:43:59.537Z,14.25
2023-05-25T20:46:26.834Z,14.29
2023-05-25T20:48:53.671Z,14.31
2023-05-25T20:51:21.707Z,14.32
2023-05-25T20:53:48.495Z,14.27
2023-05-25T20:56:15.479Z,14.17
2023-05-25T20:58:42.227Z,14.21
2023-05-25T21:01:16.688Z,14.19
2023-05-25T21:03:43.555Z,14.20
2023-05-25T21:06:12.717Z,14.15
2023-05-25T21:08:39.361Z,14.10
2023-05-25T21:11:06.997Z,14.16
2023-05-25T21:13:33.695Z,14.08
2023-05-25T21:16:00.477Z,14.04
2023-05-25T21:18:29.381Z,13.96
2023-05-25T21:20:56.039Z,13.83
2023-05-25T21:23:22.708Z,13.88
2023-05-25T21:25:49.458Z,13.79
2023-05-25T21:28:16.248Z,13.78
2023-05-25T21:30:43.081Z,13.72
2023-05-25T21:33:09.839Z,13.80
2023-05-25T21:35:36.657Z,13.66
2023-05-25T21:38:03.358Z,13.68
2023-05-25T21:40:30.064Z,13.65
2023-05-25T21:43:00.036Z,13.57
2023-05-25T21:45:26.810Z,13.58
2023-05-25T21:47:53.608Z,13.54
2023-05-25T21:50:20.539Z,13.67
2023-05-25T21:52:47.249Z,13.65
2023-05-25T21:55:13.963Z,13.62
2023-05-25T21:57:40.801Z,13.50
2023-05-25T22:00:08.268Z,13.49
2023-05-25T22:02:44.381Z,13.45
2023-05-25T22:05:11.254Z,13.43
2023-05-25T22:07:37.968Z,13.37
2023-05-25T22:10:05.101Z,13.39
2023-05-25T22:12:31.878Z,13.32
2023-05-25T22:14:58.589Z,13.31
2023-05-25T22:17:25.348Z,13.18
2023-05-25T22:20:03.249Z,13.22
2023-05-25T22:22:42.377Z,13.21
2023-05-25T22:25:09.437Z,13.13
2023-05-25T22:27:36.115Z,13.12
2023-05-25T22:30:03.525Z,12.98
2023-05-25T22:32:30.359Z,13.01
2023-05-25T22:34:57.062Z,13.02
2023-05-25T22:37:23.763Z,12.90
2023-05-25T22:39:50.478Z,12.93
2023-05-25T22:42:17.274Z,12.84
2023-05-25T22:44:46.401Z,12.83
2023-05-25T22:47:13.300Z,12.74
2023-05-25T22:49:43.128Z,12.67
2023-05-25T22:52:11.202Z,12.63
2023-05-25T22:54:37.957Z,12.82
2023-05-25T22:57:09.011Z,12.74
2023-05-25T22:59:36.143Z,12.60
2023-05-25T23:02:02.873Z,12.58
2023-05-25T23:04:29.590Z,12.57
2023-05-25T23:06:56.299Z,12.55
2023-05-25T23:09:23.083Z,12.57
2023-05-25T23:11:49.792Z,12.51
2023-05-25T23:14:16.686Z,12.50
2023-05-25T23:16:44.469Z,12.40
2023-05-25T23:19:11.482Z,12.49
2023-05-25T23:21:38.172Z,12.54
2023-05-25T23:24:05.260Z,12.43
2023-05-25T23:26:31.962Z,12.36
2023-05-25T23:28:58.747Z,12.30
2023-05-25T23:31:25.695Z,12.22
2023-05-25T23:33:52.422Z,12.29
2023-05-25T23:36:19.126Z,12.23
2023-05-25T23:38:46.399Z,12.17
2023-05-25T23:41:13.355Z,12.14
2023-05-25T23:43:40.082Z,12.09
2023-05-25T23:46:07.331Z,12.00
2023-05-25T23:48:34.104Z,11.94
2023-05-25T23:51:01.084Z,11.95
2023-05-25T23:53:27.840Z,11.98
2023-05-25T23:55:54.652Z,12.02
2023-05-25T23:58:21.333Z,11.97
